sensor_id;sensor_type;location;lat;lon;timestamp;P1;durP1;ratioP1;P2;durP2;ratioP2
45408;SDS011;31162;51.076;3.784;2023-06-10T00:01:13;8.15;;;7.32;;
45408;SDS011;31162;51.076;3.784;2023-06-10T00:03:38;8.25;;;7.65;;
45408;SDS011;31162;51.076;3.784;2023-06-10T00:06:06;8.15;;;7.32;;
45408;SDS011;31162;51.076;3.784;2023-06-10T00:08:31;8.25;;;7.50;;
45408;SDS011;31162;51.076;3.784;2023-06-10T00:10:58;9.95;;;7.70;;
45408;SDS011;31162;51.076;3.784;2023-06-10T00:13:23;9.75;;;7.63;;
45408;SDS011;31162;51.076;3.784;2023-06-10T00:15:50;8.00;;;7.40;;
45408;SDS011;31162;51.076;3.784;2023-06-10T00:18:15;8.95;;;8.15;;
45408;SDS011;31162;51.076;3.784;2023-06-10T00:20:42;8.27;;;7.47;;
45408;SDS011;31162;51.076;3.784;2023-06-10T00:23:08;8.30;;;7.60;;
45408;SDS011;31162;51.076;3.784;2023-06-10T00:25:34;8.90;;;7.97;;
45408;SDS011;31162;51.076;3.784;2023-06-10T00:28:00;8.73;;;8.02;;
45408;SDS011;31162;51.076;3.784;2023-06-10T00:30:25;9.25;;;8.38;;
45408;SDS011;31162;51.076;3.784;2023-06-10T00:32:51;8.70;;;7.97;;
45408;SDS011;31162;51.076;3.784;2023-06-10T00:35:17;8.43;;;7.57;;
45408;SDS011;31162;51.076;3.784;2023-06-10T00:37:42;8.45;;;7.65;;
45408;SDS011;31162;51.076;3.784;2023-06-10T00:40:08;11.95;;;8.40;;
45408;SDS011;31162;51.076;3.784;2023-06-10T00:42:34;9.88;;;8.05;;
45408;SDS011;31162;51.076;3.784;2023-06-10T00:45:00;9.10;;;8.18;;
45408;SDS011;31162;51.076;3.784;2023-06-10T00:47:26;8.65;;;7.85;;
45408;SDS011;31162;51.076;3.784;2023-06-10T00:49:52;8.75;;;7.88;;
45408;SDS011;31162;51.076;3.784;2023-06-10T00:52:19;10.93;;;8.02;;
45408;SDS011;31162;51.076;3.784;2023-06-10T00:54:49;10.98;;;8.90;;
45408;SDS011;31162;51.076;3.784;2023-06-10T00:57:15;9.15;;;8.45;;
45408;SDS011;31162;51.076;3.784;2023-06-10T00:59:41;8.68;;;7.90;;
45408;SDS011;31162;51.076;3.784;2023-06-10T01:04:37;9.65;;;8.85;;
45408;SDS011;31162;51.076;3.784;2023-06-10T01:09:45;9.30;;;8.32;;
45408;SDS011;31162;51.076;3.784;2023-06-10T01:12:49;8.80;;;8.07;;
45408;SDS011;31162;51.076;3.784;2023-06-10T01:15:17;9.43;;;8.60;;
45408;SDS011;31162;51.076;3.784;2023-06-10T01:17:56;9.15;;;8.35;;
45408;SDS011;31162;51.076;3.784;2023-06-10T01:20:23;12.35;;;8.70;;
45408;SDS011;31162;51.076;3.784;2023-06-10T01:22:53;9.35;;;8.45;;
45408;SDS011;31162;51.076;3.784;2023-06-10T01:25:20;9.02;;;8.25;;
45408;SDS011;31162;51.076;3.784;2023-06-10T01:33:49;14.38;;;8.63;;
45408;SDS011;31162;51.076;3.784;2023-06-10T01:36:17;10.77;;;9.07;;
45408;SDS011;31162;51.076;3.784;2023-06-10T01:38:45;9.48;;;8.68;;
45408;SDS011;31162;51.076;3.784;2023-06-10T01:41:18;9.48;;;8.68;;
45408;SDS011;31162;51.076;3.784;2023-06-10T01:43:46;9.18;;;8.35;;
45408;SDS011;31162;51.076;3.784;2023-06-10T01:46:12;8.93;;;8.00;;
45408;SDS011;31162;51.076;3.784;2023-06-10T01:48:39;9.13;;;8.35;;
45408;SDS011;31162;51.076;3.784;2023-06-10T01:51:06;9.55;;;8.55;;
45408;SDS011;31162;51.076;3.784;2023-06-10T01:53:31;9.75;;;8.85;;
45408;SDS011;31162;51.076;3.784;2023-06-10T01:55:57;10.32;;;9.35;;
45408;SDS011;31162;51.076;3.784;2023-06-10T01:58:23;9.73;;;8.68;;
45408;SDS011;31162;51.076;3.784;2023-06-10T02:00:48;10.10;;;9.07;;
45408;SDS011;31162;51.076;3.784;2023-06-10T02:03:14;9.35;;;8.63;;
45408;SDS011;31162;51.076;3.784;2023-06-10T02:05:43;9.95;;;8.95;;
45408;SDS011;31162;51.076;3.784;2023-06-10T02:08:09;9.85;;;9.05;;
45408;SDS011;31162;51.076;3.784;2023-06-10T02:10:34;9.90;;;8.82;;
45408;SDS011;31162;51.076;3.784;2023-06-10T02:13:00;10.15;;;9.13;;
45408;SDS011;31162;51.076;3.784;2023-06-10T02:15:26;10.13;;;9.13;;
45408;SDS011;31162;51.076;3.784;2023-06-10T02:17:52;10.02;;;9.13;;
45408;SDS011;31162;51.076;3.784;2023-06-10T02:20:17;9.88;;;8.98;;
45408;SDS011;31162;51.076;3.784;2023-06-10T02:22:44;10.30;;;9.23;;
45408;SDS011;31162;51.076;3.784;2023-06-10T02:25:11;10.70;;;9.65;;
45408;SDS011;31162;51.076;3.784;2023-06-10T02:27:37;10.63;;;9.63;;
45408;SDS011;31162;51.076;3.784;2023-06-10T02:30:03;10.55;;;9.63;;
45408;SDS011;31162;51.076;3.784;2023-06-10T02:32:29;10.80;;;9.70;;
45408;SDS011;31162;51.076;3.784;2023-06-10T02:34:55;10.90;;;9.90;;
45408;SDS011;31162;51.076;3.784;2023-06-10T02:37:20;10.40;;;9.52;;
45408;SDS011;31162;51.076;3.784;2023-06-10T02:39:46;10.68;;;9.63;;
45408;SDS011;31162;51.076;3.784;2023-06-10T02:42:12;10.95;;;10.15;;
45408;SDS011;31162;51.076;3.784;2023-06-10T02:44:38;10.90;;;10.00;;
45408;SDS011;31162;51.076;3.784;2023-06-10T02:47:04;10.98;;;9.85;;
45408;SDS011;31162;51.076;3.784;2023-06-10T02:49:30;10.95;;;9.90;;
45408;SDS011;31162;51.076;3.784;2023-06-10T02:51:56;10.60;;;9.43;;
45408;SDS011;31162;51.076;3.784;2023-06-10T02:54:22;10.70;;;9.80;;
45408;SDS011;31162;51.076;3.784;2023-06-10T02:56:48;11.02;;;9.95;;
45408;SDS011;31162;51.076;3.784;2023-06-10T02:59:14;10.52;;;9.63;;
45408;SDS011;31162;51.076;3.784;2023-06-10T03:01:40;10.85;;;9.77;;
45408;SDS011;31162;51.076;3.784;2023-06-10T03:04:07;11.25;;;10.18;;
45408;SDS011;31162;51.076;3.784;2023-06-10T03:06:33;10.82;;;9.85;;
45408;SDS011;31162;51.076;3.784;2023-06-10T03:09:00;10.52;;;9.52;;
45408;SDS011;31162;51.076;3.784;2023-06-10T03:11:26;11.25;;;10.13;;
45408;SDS011;31162;51.076;3.784;2023-06-10T03:13:52;11.73;;;10.55;;
45408;SDS011;31162;51.076;3.784;2023-06-10T03:16:20;11.55;;;10.57;;
45408;SDS011;31162;51.076;3.784;2023-06-10T03:18:46;10.98;;;9.88;;
45408;SDS011;31162;51.076;3.784;2023-06-10T03:21:12;11.48;;;10.35;;
45408;SDS011;31162;51.076;3.784;2023-06-10T03:23:37;10.48;;;9.55;;
45408;SDS011;31162;51.076;3.784;2023-06-10T03:26:04;11.38;;;10.48;;
45408;SDS011;31162;51.076;3.784;2023-06-10T03:28:33;11.15;;;10.27;;
45408;SDS011;31162;51.076;3.784;2023-06-10T03:30:58;11.10;;;10.20;;
45408;SDS011;31162;51.076;3.784;2023-06-10T03:33:24;12.07;;;10.85;;
45408;SDS011;31162;51.076;3.784;2023-06-10T03:35:51;12.32;;;11.18;;
45408;SDS011;31162;51.076;3.784;2023-06-10T03:38:17;12.45;;;11.30;;
45408;SDS011;31162;51.076;3.784;2023-06-10T03:40:42;11.85;;;10.68;;
45408;SDS011;31162;51.076;3.784;2023-06-10T03:43:08;11.63;;;10.45;;
45408;SDS011;31162;51.076;3.784;2023-06-10T03:45:33;13.10;;;10.63;;
45408;SDS011;31162;51.076;3.784;2023-06-10T03:47:59;11.00;;;10.10;;
45408;SDS011;31162;51.076;3.784;2023-06-10T03:50:26;12.38;;;11.25;;
45408;SDS011;31162;51.076;3.784;2023-06-10T03:52:51;11.55;;;10.55;;
45408;SDS011;31162;51.076;3.784;2023-06-10T03:55:17;14.05;;;11.73;;
45408;SDS011;31162;51.076;3.784;2023-06-10T03:57:43;12.30;;;11.07;;
45408;SDS011;31162;51.076;3.784;2023-06-10T04:00:09;12.10;;;11.10;;
45408;SDS011;31162;51.076;3.784;2023-06-10T04:02:38;11.98;;;10.77;;
45408;SDS011;31162;51.076;3.784;2023-06-10T04:05:17;11.77;;;10.68;;
45408;SDS011;31162;51.076;3.784;2023-06-10T04:07:43;11.95;;;10.75;;
45408;SDS011;31162;51.076;3.784;2023-06-10T04:10:09;11.45;;;10.30;;
45408;SDS011;31162;51.076;3.784;2023-06-10T04:12:36;12.07;;;10.82;;
45408;SDS011;31162;51.076;3.784;2023-06-10T04:15:03;12.25;;;11.25;;
45408;SDS011;31162;51.076;3.784;2023-06-10T04:17:29;12.38;;;11.07;;
45408;SDS011;31162;51.076;3.784;2023-06-10T04:19:55;13.60;;;12.48;;
45408;SDS011;31162;51.076;3.784;2023-06-10T04:22:21;13.25;;;12.05;;
45408;SDS011;31162;51.076;3.784;2023-06-10T04:24:47;13.45;;;10.93;;
45408;SDS011;31162;51.076;3.784;2023-06-10T04:27:13;11.55;;;10.43;;
45408;SDS011;31162;51.076;3.784;2023-06-10T04:29:39;12.50;;;11.50;;
45408;SDS011;31162;51.076;3.784;2023-06-10T04:32:05;12.27;;;11.15;;
45408;SDS011;31162;51.076;3.784;2023-06-10T04:34:33;11.90;;;10.90;;
45408;SDS011;31162;51.076;3.784;2023-06-10T04:36:59;12.55;;;11.35;;
45408;SDS011;31162;51.076;3.784;2023-06-10T04:39:27;11.90;;;10.90;;
45408;SDS011;31162;51.076;3.784;2023-06-10T04:41:52;12.15;;;11.13;;
45408;SDS011;31162;51.076;3.784;2023-06-10T04:44:18;12.05;;;10.80;;
45408;SDS011;31162;51.076;3.784;2023-06-10T04:46:44;11.73;;;10.73;;
45408;SDS011;31162;51.076;3.784;2023-06-10T04:49:10;12.60;;;11.70;;
45408;SDS011;31162;51.076;3.784;2023-06-10T04:51:39;12.27;;;10.75;;
45408;SDS011;31162;51.076;3.784;2023-06-10T04:54:07;11.77;;;10.77;;
45408;SDS011;31162;51.076;3.784;2023-06-10T04:56:35;12.15;;;11.00;;
45408;SDS011;31162;51.076;3.784;2023-06-10T04:59:04;11.52;;;10.52;;
45408;SDS011;31162;51.076;3.784;2023-06-10T05:01:30;12.43;;;11.40;;
45408;SDS011;31162;51.076;3.784;2023-06-10T05:03:55;11.98;;;10.77;;
45408;SDS011;31162;51.076;3.784;2023-06-10T05:06:21;11.95;;;11.00;;
45408;SDS011;31162;51.076;3.784;2023-06-10T05:08:47;12.32;;;10.85;;
45408;SDS011;31162;51.076;3.784;2023-06-10T05:11:12;11.27;;;10.27;;
45408;SDS011;31162;51.076;3.784;2023-06-10T05:13:38;12.05;;;11.00;;
45408;SDS011;31162;51.076;3.784;2023-06-10T05:16:05;11.60;;;10.45;;
45408;SDS011;31162;51.076;3.784;2023-06-10T05:18:31;12.30;;;10.98;;
45408;SDS011;31162;51.076;3.784;2023-06-10T05:20:57;12.50;;;11.27;;
45408;SDS011;31162;51.076;3.784;2023-06-10T05:23:22;12.68;;;11.57;;
45408;SDS011;31162;51.076;3.784;2023-06-10T05:25:50;11.98;;;10.80;;
45408;SDS011;31162;51.076;3.784;2023-06-10T05:28:16;13.07;;;10.48;;
45408;SDS011;31162;51.076;3.784;2023-06-10T05:30:42;13.30;;;10.88;;
45408;SDS011;31162;51.076;3.784;2023-06-10T05:33:07;11.20;;;10.20;;
45408;SDS011;31162;51.076;3.784;2023-06-10T05:35:33;11.60;;;10.68;;
45408;SDS011;31162;51.076;3.784;2023-06-10T05:37:59;11.63;;;10.43;;
45408;SDS011;31162;51.076;3.784;2023-06-10T05:40:24;11.68;;;10.68;;
45408;SDS011;31162;51.076;3.784;2023-06-10T05:42:50;11.82;;;10.75;;
45408;SDS011;31162;51.076;3.784;2023-06-10T05:45:16;11.18;;;10.18;;
45408;SDS011;31162;51.076;3.784;2023-06-10T05:47:41;11.98;;;10.98;;
45408;SDS011;31162;51.076;3.784;2023-06-10T05:50:07;11.68;;;10.68;;
45408;SDS011;31162;51.076;3.784;2023-06-10T05:52:34;11.80;;;10.80;;
45408;SDS011;31162;51.076;3.784;2023-06-10T05:55:00;11.73;;;10.60;;
45408;SDS011;31162;51.076;3.784;2023-06-10T05:57:26;11.07;;;10.05;;
45408;SDS011;31162;51.076;3.784;2023-06-10T05:59:52;11.15;;;10.20;;
45408;SDS011;31162;51.076;3.784;2023-06-10T06:02:17;11.75;;;10.63;;
45408;SDS011;31162;51.076;3.784;2023-06-10T06:04:43;12.10;;;11.00;;
45408;SDS011;31162;51.076;3.784;2023-06-10T06:07:09;11.85;;;10.85;;
45408;SDS011;31162;51.076;3.784;2023-06-10T06:09:34;10.13;;;9.32;;
45408;SDS011;31162;51.076;3.784;2023-06-10T06:12:00;11.50;;;10.50;;
45408;SDS011;31162;51.076;3.784;2023-06-10T06:14:26;11.85;;;10.82;;
45408;SDS011;31162;51.076;3.784;2023-06-10T06:16:55;10.63;;;9.73;;
45408;SDS011;31162;51.076;3.784;2023-06-10T06:19:21;11.90;;;10.90;;
45408;SDS011;31162;51.076;3.784;2023-06-10T06:21:46;11.95;;;10.75;;
45408;SDS011;31162;51.076;3.784;2023-06-10T06:24:12;11.15;;;9.90;;
45408;SDS011;31162;51.076;3.784;2023-06-10T06:26:38;11.13;;;9.98;;
45408;SDS011;31162;51.076;3.784;2023-06-10T06:29:04;11.75;;;10.40;;
45408;SDS011;31162;51.076;3.784;2023-06-10T06:31:30;10.93;;;10.02;;
45408;SDS011;31162;51.076;3.784;2023-06-10T06:33:56;11.00;;;9.68;;
45408;SDS011;31162;51.076;3.784;2023-06-10T06:36:22;10.93;;;10.02;;
45408;SDS011;31162;51.076;3.784;2023-06-10T06:38:47;10.88;;;9.95;;
45408;SDS011;31162;51.076;3.784;2023-06-10T06:41:13;9.13;;;8.43;;
45408;SDS011;31162;51.076;3.784;2023-06-10T06:43:38;11.13;;;9.77;;
45408;SDS011;31162;51.076;3.784;2023-06-10T06:46:04;11.82;;;9.20;;
45408;SDS011;31162;51.076;3.784;2023-06-10T06:48:30;11.18;;;9.77;;
45408;SDS011;31162;51.076;3.784;2023-06-10T06:50:58;10.45;;;9.60;;
45408;SDS011;31162;51.076;3.784;2023-06-10T06:53:26;9.70;;;8.93;;
45408;SDS011;31162;51.076;3.784;2023-06-10T06:55:52;9.93;;;9.02;;
45408;SDS011;31162;51.076;3.784;2023-06-10T06:58:17;9.80;;;9.00;;
45408;SDS011;31162;51.076;3.784;2023-06-10T07:00:43;9.73;;;8.93;;
45408;SDS011;31162;51.076;3.784;2023-06-10T07:03:08;10.02;;;9.00;;
45408;SDS011;31162;51.076;3.784;2023-06-10T07:05:34;9.90;;;9.00;;
45408;SDS011;31162;51.076;3.784;2023-06-10T07:08:00;10.07;;;9.18;;
45408;SDS011;31162;51.076;3.784;2023-06-10T07:10:26;11.45;;;9.32;;
45408;SDS011;31162;51.076;3.784;2023-06-10T07:12:52;10.07;;;9.18;;
45408;SDS011;31162;51.076;3.784;2023-06-10T07:15:18;9.77;;;9.07;;
45408;SDS011;31162;51.076;3.784;2023-06-10T07:17:44;9.40;;;8.60;;
45408;SDS011;31162;51.076;3.784;2023-06-10T07:20:10;9.75;;;8.95;;
45408;SDS011;31162;51.076;3.784;2023-06-10T07:22:36;9.90;;;8.50;;
45408;SDS011;31162;51.076;3.784;2023-06-10T07:25:04;10.15;;;9.35;;
45408;SDS011;31162;51.076;3.784;2023-06-10T07:27:30;10.65;;;9.80;;
45408;SDS011;31162;51.076;3.784;2023-06-10T07:29:55;10.38;;;9.48;;
45408;SDS011;31162;51.076;3.784;2023-06-10T07:32:21;10.05;;;9.25;;
45408;SDS011;31162;51.076;3.784;2023-06-10T07:34:48;9.90;;;9.07;;
45408;SDS011;31162;51.076;3.784;2023-06-10T07:37:14;10.40;;;9.50;;
45408;SDS011;31162;51.076;3.784;2023-06-10T07:39:40;9.70;;;8.85;;
45408;SDS011;31162;51.076;3.784;2023-06-10T07:42:06;10.13;;;9.07;;
45408;SDS011;31162;51.076;3.784;2023-06-10T07:44:32;11.05;;;9.35;;
45408;SDS011;31162;51.076;3.784;2023-06-10T07:47:00;9.55;;;8.65;;
45408;SDS011;31162;51.076;3.784;2023-06-10T07:49:25;10.52;;;9.10;;
45408;SDS011;31162;51.076;3.784;2023-06-10T07:51:53;9.82;;;8.90;;
45408;SDS011;31162;51.076;3.784;2023-06-10T07:54:19;9.63;;;8.93;;
45408;SDS011;31162;51.076;3.784;2023-06-10T07:56:44;9.98;;;9.07;;
45408;SDS011;31162;51.076;3.784;2023-06-10T07:59:10;9.68;;;8.88;;
45408;SDS011;31162;51.076;3.784;2023-06-10T08:01:36;9.55;;;8.73;;
45408;SDS011;31162;51.076;3.784;2023-06-10T08:04:04;9.55;;;8.75;;
45408;SDS011;31162;51.076;3.784;2023-06-10T08:06:30;10.20;;;9.20;;
45408;SDS011;31162;51.076;3.784;2023-06-10T08:08:55;9.40;;;8.68;;
45408;SDS011;31162;51.076;3.784;2023-06-10T08:11:21;9.38;;;8.55;;
45408;SDS011;31162;51.076;3.784;2023-06-10T08:13:47;9.70;;;8.95;;
45408;SDS011;31162;51.076;3.784;2023-06-10T08:16:12;10.18;;;9.10;;
45408;SDS011;31162;51.076;3.784;2023-06-10T08:18:38;9.38;;;8.68;;
45408;SDS011;31162;51.076;3.784;2023-06-10T08:21:04;9.73;;;8.90;;
45408;SDS011;31162;51.076;3.784;2023-06-10T08:23:29;9.88;;;8.88;;
45408;SDS011;31162;51.076;3.784;2023-06-10T08:25:55;9.75;;;9.05;;
45408;SDS011;31162;51.076;3.784;2023-06-10T08:28:20;9.90;;;9.13;;
45408;SDS011;31162;51.076;3.784;2023-06-10T08:30:46;9.15;;;8.38;;
45408;SDS011;31162;51.076;3.784;2023-06-10T08:33:12;9.65;;;8.50;;
45408;SDS011;31162;51.076;3.784;2023-06-10T08:35:40;9.75;;;8.95;;
45408;SDS011;31162;51.076;3.784;2023-06-10T08:38:05;15.30;;;8.93;;
45408;SDS011;31162;51.076;3.784;2023-06-10T08:40:32;9.05;;;8.25;;
45408;SDS011;31162;51.076;3.784;2023-06-10T08:45:32;9.88;;;8.93;;
45408;SDS011;31162;51.076;3.784;2023-06-10T08:48:00;9.15;;;8.40;;
45408;SDS011;31162;51.076;3.784;2023-06-10T08:50:31;9.07;;;8.35;;
45408;SDS011;31162;51.076;3.784;2023-06-10T08:53:00;8.80;;;8.07;;
45408;SDS011;31162;51.076;3.784;2023-06-10T08:55:27;8.90;;;8.10;;
45408;SDS011;31162;51.076;3.784;2023-06-10T08:57:57;8.67;;;8.00;;
45408;SDS011;31162;51.076;3.784;2023-06-10T09:00:26;9.02;;;8.43;;
45408;SDS011;31162;51.076;3.784;2023-06-10T09:02:54;8.55;;;7.72;;
45408;SDS011;31162;51.076;3.784;2023-06-10T09:05:21;10.20;;;8.07;;
45408;SDS011;31162;51.076;3.784;2023-06-10T09:07:47;8.20;;;7.50;;
45408;SDS011;31162;51.076;3.784;2023-06-10T09:10:13;8.43;;;7.72;;
45408;SDS011;31162;51.076;3.784;2023-06-10T09:12:39;8.50;;;7.68;;
45408;SDS011;31162;51.076;3.784;2023-06-10T09:15:06;14.00;;;8.85;;
45408;SDS011;31162;51.076;3.784;2023-06-10T09:17:32;8.65;;;7.85;;
45408;SDS011;31162;51.076;3.784;2023-06-10T09:19:59;8.32;;;7.72;;
45408;SDS011;31162;51.076;3.784;2023-06-10T09:22:25;8.82;;;8.02;;
45408;SDS011;31162;51.076;3.784;2023-06-10T09:24:52;9.25;;;8.00;;
45408;SDS011;31162;51.076;3.784;2023-06-10T09:27:30;8.77;;;8.00;;
45408;SDS011;31162;51.076;3.784;2023-06-10T09:29:59;9.30;;;8.05;;
45408;SDS011;31162;51.076;3.784;2023-06-10T09:32:25;8.57;;;7.93;;
45408;SDS011;31162;51.076;3.784;2023-06-10T09:34:51;9.27;;;8.32;;
45408;SDS011;31162;51.076;3.784;2023-06-10T09:37:20;8.35;;;7.70;;
45408;SDS011;31162;51.076;3.784;2023-06-10T09:40:03;9.27;;;8.13;;
45408;SDS011;31162;51.076;3.784;2023-06-10T09:42:33;9.80;;;8.10;;
45408;SDS011;31162;51.076;3.784;2023-06-10T09:45:00;8.05;;;7.35;;
45408;SDS011;31162;51.076;3.784;2023-06-10T09:47:27;8.52;;;7.85;;
45408;SDS011;31162;51.076;3.784;2023-06-10T09:49:53;9.05;;;8.25;;
45408;SDS011;31162;51.076;3.784;2023-06-10T09:52:22;8.60;;;7.90;;
45408;SDS011;31162;51.076;3.784;2023-06-10T09:54:53;8.18;;;7.40;;
45408;SDS011;31162;51.076;3.784;2023-06-10T09:57:24;8.35;;;7.40;;
45408;SDS011;31162;51.076;3.784;2023-06-10T09:59:53;7.82;;;7.32;;
45408;SDS011;31162;51.076;3.784;2023-06-10T10:02:19;7.53;;;6.90;;
45408;SDS011;31162;51.076;3.784;2023-06-10T10:04:45;7.95;;;7.30;;
45408;SDS011;31162;51.076;3.784;2023-06-10T10:07:11;7.07;;;6.47;;
45408;SDS011;31162;51.076;3.784;2023-06-10T10:09:37;8.07;;;7.38;;
45408;SDS011;31162;51.076;3.784;2023-06-10T10:12:21;7.68;;;7.13;;
45408;SDS011;31162;51.076;3.784;2023-06-10T10:14:48;8.75;;;7.50;;
45408;SDS011;31162;51.076;3.784;2023-06-10T10:17:15;6.68;;;6.18;;
45408;SDS011;31162;51.076;3.784;2023-06-10T10:19:53;6.32;;;5.82;;
45408;SDS011;31162;51.076;3.784;2023-06-10T10:22:26;7.88;;;5.95;;
45408;SDS011;31162;51.076;3.784;2023-06-10T10:24:59;7.22;;;6.60;;
45408;SDS011;31162;51.076;3.784;2023-06-10T10:27:28;6.57;;;6.07;;
45408;SDS011;31162;51.076;3.784;2023-06-10T10:30:30;6.70;;;6.20;;
45408;SDS011;31162;51.076;3.784;2023-06-10T10:33:22;8.10;;;5.65;;
45408;SDS011;31162;51.076;3.784;2023-06-10T10:35:56;7.03;;;6.50;;
45408;SDS011;31162;51.076;3.784;2023-06-10T10:38:23;9.20;;;6.32;;
45408;SDS011;31162;51.076;3.784;2023-06-10T10:40:49;6.47;;;5.93;;
45408;SDS011;31162;51.076;3.784;2023-06-10T10:43:15;9.68;;;6.47;;
45408;SDS011;31162;51.076;3.784;2023-06-10T10:45:42;6.53;;;5.93;;
45408;SDS011;31162;51.076;3.784;2023-06-10T10:48:10;6.28;;;5.85;;
45408;SDS011;31162;51.076;3.784;2023-06-10T10:50:36;6.78;;;6.28;;
45408;SDS011;31162;51.076;3.784;2023-06-10T10:53:03;6.80;;;6.20;;
45408;SDS011;31162;51.076;3.784;2023-06-10T10:55:30;6.60;;;6.10;;
45408;SDS011;31162;51.076;3.784;2023-06-10T11:03:07;6.53;;;5.95;;
45408;SDS011;31162;51.076;3.784;2023-06-10T11:05:37;7.47;;;6.80;;
45408;SDS011;31162;51.076;3.784;2023-06-10T11:08:04;7.55;;;6.47;;
45408;SDS011;31162;51.076;3.784;2023-06-10T11:10:33;8.38;;;6.43;;
45408;SDS011;31162;51.076;3.784;2023-06-10T11:13:09;7.28;;;6.63;;
45408;SDS011;31162;51.076;3.784;2023-06-10T11:15:39;7.53;;;6.80;;
45408;SDS011;31162;51.076;3.784;2023-06-10T11:18:13;7.22;;;6.57;;
45408;SDS011;31162;51.076;3.784;2023-06-10T11:23:48;7.15;;;6.60;;
45408;SDS011;31162;51.076;3.784;2023-06-10T11:31:22;6.93;;;6.28;;
45408;SDS011;31162;51.076;3.784;2023-06-10T11:33:55;6.70;;;6.25;;
45408;SDS011;31162;51.076;3.784;2023-06-10T11:36:23;8.32;;;6.85;;
45408;SDS011;31162;51.076;3.784;2023-06-10T11:38:50;7.22;;;6.68;;
45408;SDS011;31162;51.076;3.784;2023-06-10T11:41:23;7.60;;;7.00;;
45408;SDS011;31162;51.076;3.784;2023-06-10T11:43:51;9.02;;;7.05;;
45408;SDS011;31162;51.076;3.784;2023-06-10T11:46:21;7.95;;;7.15;;
45408;SDS011;31162;51.076;3.784;2023-06-10T11:48:53;7.35;;;6.85;;
45408;SDS011;31162;51.076;3.784;2023-06-10T11:51:21;7.45;;;6.72;;
45408;SDS011;31162;51.076;3.784;2023-06-10T11:53:47;7.88;;;7.25;;
45408;SDS011;31162;51.076;3.784;2023-06-10T11:56:20;7.28;;;6.68;;
45408;SDS011;31162;51.076;3.784;2023-06-10T11:58:52;7.50;;;6.80;;
45408;SDS011;31162;51.076;3.784;2023-06-10T12:01:20;7.10;;;6.60;;
45408;SDS011;31162;51.076;3.784;2023-06-10T12:03:50;7.50;;;6.90;;
45408;SDS011;31162;51.076;3.784;2023-06-10T12:06:22;7.75;;;6.28;;
45408;SDS011;31162;51.076;3.784;2023-06-10T12:08:48;8.23;;;6.50;;
45408;SDS011;31162;51.076;3.784;2023-06-10T12:11:13;7.57;;;6.97;;
45408;SDS011;31162;51.076;3.784;2023-06-10T12:13:45;8.40;;;7.00;;
45408;SDS011;31162;51.076;3.784;2023-06-10T12:16:14;7.50;;;6.82;;
45408;SDS011;31162;51.076;3.784;2023-06-10T12:18:42;7.45;;;5.97;;
45408;SDS011;31162;51.076;3.784;2023-06-10T12:21:20;5.97;;;5.47;;
45408;SDS011;31162;51.076;3.784;2023-06-10T12:26:35;6.07;;;5.57;;
45408;SDS011;31162;51.076;3.784;2023-06-10T12:29:23;6.05;;;5.55;;
45408;SDS011;31162;51.076;3.784;2023-06-10T12:31:57;6.68;;;5.38;;
45408;SDS011;31162;51.076;3.784;2023-06-10T12:34:40;5.93;;;5.45;;
45408;SDS011;31162;51.076;3.784;2023-06-10T12:37:12;7.53;;;5.57;;
45408;SDS011;31162;51.076;3.784;2023-06-10T12:39:41;6.13;;;5.50;;
45408;SDS011;31162;51.076;3.784;2023-06-10T12:42:10;6.82;;;6.22;;
45408;SDS011;31162;51.076;3.784;2023-06-10T12:44:40;6.15;;;5.47;;
45408;SDS011;31162;51.076;3.784;2023-06-10T12:47:12;6.13;;;5.63;;
45408;SDS011;31162;51.076;3.784;2023-06-10T12:49:38;7.43;;;5.63;;
45408;SDS011;31162;51.076;3.784;2023-06-10T12:52:05;6.13;;;5.60;;
45408;SDS011;31162;51.076;3.784;2023-06-10T12:54:31;8.30;;;6.35;;
45408;SDS011;31162;51.076;3.784;2023-06-10T12:56:57;7.63;;;5.53;;
45408;SDS011;31162;51.076;3.784;2023-06-10T12:59:23;6.90;;;6.00;;
45408;SDS011;31162;51.076;3.784;2023-06-10T13:01:52;6.18;;;5.68;;
45408;SDS011;31162;51.076;3.784;2023-06-10T13:04:18;6.43;;;5.85;;
45408;SDS011;31162;51.076;3.784;2023-06-10T13:06:45;8.43;;;5.63;;
45408;SDS011;31162;51.076;3.784;2023-06-10T13:09:12;6.57;;;5.93;;
45408;SDS011;31162;51.076;3.784;2023-06-10T13:11:38;8.40;;;5.65;;
45408;SDS011;31162;51.076;3.784;2023-06-10T13:14:04;6.30;;;5.80;;
45408;SDS011;31162;51.076;3.784;2023-06-10T13:16:31;6.07;;;5.63;;
45408;SDS011;31162;51.076;3.784;2023-06-10T13:18:57;7.22;;;5.63;;
45408;SDS011;31162;51.076;3.784;2023-06-10T13:21:23;6.38;;;5.40;;
45408;SDS011;31162;51.076;3.784;2023-06-10T13:23:49;8.32;;;5.60;;
45408;SDS011;31162;51.076;3.784;2023-06-10T13:26:15;6.70;;;5.70;;
45408;SDS011;31162;51.076;3.784;2023-06-10T13:28:45;7.50;;;6.32;;
45408;SDS011;31162;51.076;3.784;2023-06-10T13:31:10;6.38;;;5.85;;
45408;SDS011;31162;51.076;3.784;2023-06-10T13:33:36;5.90;;;5.40;;
45408;SDS011;31162;51.076;3.784;2023-06-10T13:36:02;6.95;;;6.20;;
45408;SDS011;31162;51.076;3.784;2023-06-10T13:38:28;7.43;;;6.40;;
45408;SDS011;31162;51.076;3.784;2023-06-10T13:40:54;6.18;;;5.75;;
45408;SDS011;31162;51.076;3.784;2023-06-10T13:43:19;7.45;;;6.43;;
45408;SDS011;31162;51.076;3.784;2023-06-10T13:45:45;7.20;;;6.57;;
45408;SDS011;31162;51.076;3.784;2023-06-10T13:48:11;7.25;;;6.63;;
45408;SDS011;31162;51.076;3.784;2023-06-10T13:50:37;7.20;;;6.50;;
45408;SDS011;31162;51.076;3.784;2023-06-10T13:53:03;6.50;;;5.90;;
45408;SDS011;31162;51.076;3.784;2023-06-10T13:55:29;6.65;;;6.00;;
45408;SDS011;31162;51.076;3.784;2023-06-10T13:57:54;7.05;;;6.35;;
45408;SDS011;31162;51.076;3.784;2023-06-10T14:00:20;6.20;;;5.68;;
45408;SDS011;31162;51.076;3.784;2023-06-10T14:02:46;6.70;;;6.10;;
45408;SDS011;31162;51.076;3.784;2023-06-10T14:05:11;6.65;;;6.03;;
45408;SDS011;31162;51.076;3.784;2023-06-10T14:07:37;6.40;;;5.80;;
45408;SDS011;31162;51.076;3.784;2023-06-10T14:10:04;6.68;;;5.90;;
45408;SDS011;31162;51.076;3.784;2023-06-10T14:12:30;10.13;;;6.35;;
45408;SDS011;31162;51.076;3.784;2023-06-10T14:14:56;6.95;;;6.35;;
45408;SDS011;31162;51.076;3.784;2023-06-10T14:17:22;6.57;;;6.05;;
45408;SDS011;31162;51.076;3.784;2023-06-10T14:19:48;6.72;;;6.03;;
45408;SDS011;31162;51.076;3.784;2023-06-10T14:22:14;8.55;;;6.22;;
45408;SDS011;31162;51.076;3.784;2023-06-10T14:24:39;6.60;;;5.90;;
45408;SDS011;31162;51.076;3.784;2023-06-10T14:27:05;6.82;;;6.22;;
45408;SDS011;31162;51.076;3.784;2023-06-10T14:29:31;6.53;;;5.93;;
45408;SDS011;31162;51.076;3.784;2023-06-10T14:31:58;6.55;;;6.00;;
45408;SDS011;31162;51.076;3.784;2023-06-10T14:34:24;6.10;;;5.50;;
45408;SDS011;31162;51.076;3.784;2023-06-10T14:36:54;6.47;;;5.90;;
45408;SDS011;31162;51.076;3.784;2023-06-10T14:39:20;6.60;;;6.00;;
45408;SDS011;31162;51.076;3.784;2023-06-10T14:41:45;7.93;;;6.20;;
45408;SDS011;31162;51.076;3.784;2023-06-10T14:44:11;6.32;;;5.72;;
45408;SDS011;31162;51.076;3.784;2023-06-10T14:46:36;6.40;;;5.97;;
45408;SDS011;31162;51.076;3.784;2023-06-10T14:49:02;7.53;;;6.20;;
45408;SDS011;31162;51.076;3.784;2023-06-10T14:51:28;6.82;;;5.57;;
45408;SDS011;31162;51.076;3.784;2023-06-10T14:53:53;6.47;;;5.88;;
45408;SDS011;31162;51.076;3.784;2023-06-10T14:56:23;6.10;;;5.60;;
45408;SDS011;31162;51.076;3.784;2023-06-10T14:58:48;6.78;;;6.22;;
45408;SDS011;31162;51.076;3.784;2023-06-10T15:01:14;5.90;;;5.30;;
45408;SDS011;31162;51.076;3.784;2023-06-10T15:03:40;7.00;;;6.00;;
45408;SDS011;31162;51.076;3.784;2023-06-10T15:06:06;6.50;;;5.90;;
45408;SDS011;31162;51.076;3.784;2023-06-10T15:08:31;6.25;;;5.55;;
45408;SDS011;31162;51.076;3.784;2023-06-10T15:10:57;7.05;;;6.13;;